createdAt,value
2018-08-24T00:01:36.575Z,100393.27
2018-08-24T00:04:08.471Z,100407.50
2018-08-24T00:06:38.456Z,100402.84
2018-08-24T00:09:14.979Z,100406.55
2018-08-24T00:11:43.457Z,100402.30
2018-08-24T00:14:12.910Z,100402.20
2018-08-24T00:16:42.843Z,100418.58
2018-08-24T00:19:12.844Z,100416.50
2018-08-24T00:21:41.350Z,100422.98
2018-08-24T00:24:10.638Z,100435.86
2018-08-24T00:26:39.108Z,100413.07
2018-08-24T00:29:08.061Z,100422.15
2018-08-24T00:31:37.160Z,100411.55
2018-08-24T00:34:05.667Z,100404.00
2018-08-24T00:36:34.041Z,100404.94
2018-08-24T00:39:02.508Z,100403.02
2018-08-24T00:41:30.964Z,100400.92
2018-08-24T00:43:59.380Z,100397.47
2018-08-24T00:46:27.809Z,100387.50
2018-08-24T00:48:56.250Z,100392.95
2018-08-24T00:51:24.672Z,100391.92
2018-08-24T00:53:53.149Z,100393.62
2018-08-24T00:56:21.581Z,100389.50
2018-08-24T00:58:50.011Z,100382.70
2018-08-24T01:01:18.542Z,100386.39
2018-08-24T01:03:46.960Z,100393.23
2018-08-24T01:06:19.528Z,100386.84
2018-08-24T01:08:48.389Z,100394.80
2018-08-24T01:11:16.792Z,100392.25
2018-08-24T01:13:45.268Z,100391.75
2018-08-24T01:16:19.053Z,100387.75
2018-08-24T01:18:48.433Z,100382.09
2018-08-24T01:21:17.000Z,100385.14
2018-08-24T01:23:45.397Z,100382.05
2018-08-24T01:26:17.979Z,100389.39
2018-08-24T01:28:46.646Z,100381.11
2018-08-24T01:31:15.121Z,100376.81
2018-08-24T01:33:43.481Z,100376.63
2018-08-24T01:36:11.905Z,100377.03
2018-08-24T01:38:40.325Z,100376.58
2018-08-24T01:41:08.768Z,100372.74
2018-08-24T01:43:37.154Z,100366.61
2018-08-24T01:46:10.390Z,100369.70
2018-08-24T01:48:39.581Z,100375.33
2018-08-24T01:51:08.020Z,100366.16
2018-08-24T01:53:36.480Z,100375.61
2018-08-24T01:56:04.909Z,100373.64
2018-08-24T01:58:33.342Z,100379.63
2018-08-24T02:01:01.741Z,100375.69
2018-08-24T02:03:30.173Z,100377.47
2018-08-24T02:06:03.927Z,100375.36
2018-08-24T02:08:32.327Z,100373.17
2018-08-24T02:11:00.827Z,100373.22
2018-08-24T02:13:34.521Z,100372.37
2018-08-24T02:16:02.989Z,100374.80
2018-08-24T02:18:36.531Z,100377.94
2018-08-24T02:21:10.359Z,100375.92
2018-08-24T02:23:38.771Z,100378.07
2018-08-24T02:26:07.208Z,100384.16
2018-08-24T02:28:35.592Z,100385.05
2018-08-24T02:31:04.109Z,100376.78
2018-08-24T02:33:38.455Z,100377.67
2018-08-24T02:36:07.232Z,100365.69
2018-08-24T02:38:35.602Z,100376.25
2018-08-24T02:41:04.045Z,100378.39
2018-08-24T02:43:32.502Z,100377.45
2018-08-24T02:46:00.872Z,100373.66
2018-08-24T02:48:29.300Z,100374.51
2018-08-24T02:50:57.680Z,100369.00
2018-08-24T02:53:26.397Z,100369.94
2018-08-24T02:55:54.778Z,100363.65
2018-08-24T02:58:23.209Z,100364.23
2018-08-24T03:00:51.604Z,100362.66
2018-08-24T03:03:19.989Z,100367.34
2018-08-24T03:05:48.428Z,100364.72
2018-08-24T03:08:16.958Z,100363.73
2018-08-24T03:10:45.332Z,100366.54
2018-08-24T03:13:13.720Z,100365.70
2018-08-24T03:15:42.136Z,100362.39
2018-08-24T03:18:10.539Z,100363.23
2018-08-24T03:20:38.999Z,100365.95
2018-08-24T03:23:07.441Z,100376.28
2018-08-24T03:25:35.933Z,100380.25
2018-08-24T03:28:04.344Z,100378.55
2018-08-24T03:30:32.740Z,100377.92
2018-08-24T03:33:01.156Z,100374.89
2018-08-24T03:35:29.623Z,100382.61
2018-08-24T03:37:58.013Z,100386.63
2018-08-24T03:40:26.363Z,100379.55
2018-08-24T03:42:54.834Z,100379.87
2018-08-24T03:45:23.360Z,100380.84
2018-08-24T03:47:51.808Z,100387.72
2018-08-24T03:50:20.168Z,100383.83
2018-08-24T03:52:48.640Z,100391.08
2018-08-24T03:55:17.034Z,100391.12
2018-08-24T03:57:45.434Z,100391.44
2018-08-24T04:00:17.314Z,100402.84
2018-08-24T04:02:46.510Z,100403.77
2018-08-24T04:05:15.373Z,100399.20
2018-08-24T04:07:44.392Z,100409.70
2018-08-24T04:10:12.833Z,100403.89
2018-08-24T04:12:41.309Z,100402.53
2018-08-24T04:15:09.663Z,100403.45
2018-08-24T04:17:43.207Z,100402.75
2018-08-24T04:20:12.136Z,100399.64
2018-08-24T04:22:40.760Z,100403.56
2018-08-24T04:25:09.783Z,100408.08
2018-08-24T04:27:38.530Z,100407.41
2018-08-24T04:30:07.462Z,100410.55
2018-08-24T04:32:35.944Z,100404.48
2018-08-24T04:35:04.912Z,100406.23
2018-08-24T04:37:33.366Z,100404.05
2018-08-24T04:40:01.880Z,100409.63
2018-08-24T04:42:30.288Z,100411.77
2018-08-24T04:44:58.681Z,100410.48
2018-08-24T04:47:27.084Z,100413.52
2018-08-24T04:49:55.527Z,100408.59
2018-08-24T04:52:24.447Z,100412.58
2018-08-24T04:54:52.999Z,100411.76
2018-08-24T04:57:21.376Z,100413.53
2018-08-24T04:59:49.857Z,100405.84
2018-08-24T05:02:18.251Z,100407.84
2018-08-24T05:04:46.651Z,100406.84
2018-08-24T05:07:15.025Z,100405.92
2018-08-24T05:09:43.573Z,100409.73
2018-08-24T05:12:11.961Z,100410.92
2018-08-24T05:14:40.336Z,100418.31
2018-08-24T05:17:08.807Z,100421.72
2018-08-24T05:19:37.236Z,100424.41
2018-08-24T05:22:05.875Z,100423.08
2018-08-24T05:24:34.326Z,100433.33
2018-08-24T05:27:02.711Z,100428.41
2018-08-24T05:29:31.179Z,100429.34
2018-08-24T05:31:59.601Z,100425.41
2018-08-24T05:34:28.112Z,100423.13
2018-08-24T05:36:56.891Z,100424.79
2018-08-24T05:39:25.301Z,100431.33
2018-08-24T05:41:53.761Z,100426.97
2018-08-24T05:44:23.371Z,100436.06
2018-08-24T05:46:51.807Z,100436.44
2018-08-24T05:49:20.184Z,100441.69
2018-08-24T05:51:48.662Z,100444.65
2018-08-24T05:54:17.104Z,100446.83
2018-08-24T05:56:45.552Z,100445.94
2018-08-24T05:59:14.001Z,100442.47
2018-08-24T06:01:42.404Z,100442.91
2018-08-24T06:04:10.829Z,100444.35
2018-08-24T06:06:39.310Z,100443.47
2018-08-24T06:09:14.044Z,100444.02
2018-08-24T06:11:42.643Z,100447.83
2018-08-24T06:14:12.054Z,100446.60
2018-08-24T06:16:44.693Z,100448.30
2018-08-24T06:19:13.154Z,100440.98
2018-08-24T06:21:42.132Z,100444.42
2018-08-24T06:24:10.499Z,100452.30
2018-08-24T06:26:38.906Z,100450.55
2018-08-24T06:29:07.283Z,100443.94
2018-08-24T06:31:35.735Z,100455.25
2018-08-24T06:34:04.155Z,100457.30
2018-08-24T06:36:32.584Z,100455.70
2018-08-24T06:39:00.984Z,100458.49
2018-08-24T06:41:29.381Z,100462.72
2018-08-24T06:44:05.205Z,100460.57
2018-08-24T06:46:33.602Z,100466.56
2018-08-24T06:49:02.001Z,100469.22
2018-08-24T06:51:30.391Z,100468.70
2018-08-24T06:53:58.850Z,100476.77
2018-08-24T06:56:27.296Z,100479.09
2018-08-24T06:58:55.743Z,100486.01
2018-08-24T07:01:24.196Z,100482.09
2018-08-24T07:03:52.661Z,100483.48
2018-08-24T07:06:21.090Z,100480.48
2018-08-24T07:08:49.517Z,100480.02
2018-08-24T07:11:18.412Z,100485.91
2018-08-24T07:13:49.082Z,100481.61
2018-08-24T07:16:17.576Z,100486.75
2018-08-24T07:18:46.005Z,100481.27
2018-08-24T07:21:14.424Z,100492.03
2018-08-24T07:23:42.828Z,100491.63
2018-08-24T07:26:11.360Z,100489.38
2018-08-24T07:28:39.925Z,100495.44
2018-08-24T07:31:08.540Z,100494.41
2018-08-24T07:33:36.989Z,100497.92
2018-08-24T07:36:05.496Z,100500.27
2018-08-24T07:38:34.005Z,100502.01
2018-08-24T07:41:02.425Z,100499.83
2018-08-24T07:43:30.897Z,100507.12
2018-08-24T07:45:59.439Z,100510.12
2018-08-24T07:48:27.917Z,100511.37
2018-08-24T07:50:56.461Z,100514.09
2018-08-24T07:53:24.876Z,100516.17
2018-08-24T07:55:53.877Z,100515.19
2018-08-24T07:58:22.327Z,100520.37
2018-08-24T08:00:50.789Z,100516.24
2018-08-24T08:03:19.199Z,100526.73
2018-08-24T08:05:47.572Z,100523.19
2018-08-24T08:08:16.095Z,100525.88
2018-08-24T08:10:44.481Z,100515.55
2018-08-24T08:13:13.029Z,100517.30
2018-08-24T08:15:41.692Z,100518.96
2018-08-24T08:18:10.657Z,100521.89
2018-08-24T08:20:39.682Z,100523.25
2018-08-24T08:23:08.142Z,100531.87
2018-08-24T08:25:36.606Z,100531.87
2018-08-24T08:28:05.122Z,100538.14
2018-08-24T08:30:33.601Z,100535.96
2018-08-24T08:33:02.065Z,100539.88
2018-08-24T08:35:30.486Z,100551.25
2018-08-24T08:37:58.888Z,100560.70
2018-08-24T08:40:27.342Z,100563.17
2018-08-24T08:42:55.801Z,100583.70
2018-08-24T08:45:24.295Z,100593.98
2018-08-24T08:47:52.693Z,100598.74
2018-08-24T08:50:21.132Z,100590.16
2018-08-24T08:52:49.546Z,100598.70
2018-08-24T08:55:17.978Z,100590.30
2018-08-24T08:57:46.416Z,100592.94
2018-08-24T09:00:14.865Z,100606.91
2018-08-24T09:02:43.309Z,100598.00
2018-08-24T09:05:11.774Z,100594.39
2018-08-24T09:07:40.195Z,100594.13
2018-08-24T09:10:08.672Z,100604.88
2018-08-24T09:12:37.127Z,100620.50
2018-08-24T09:15:06.639Z,100629.67
2018-08-24T09:17:40.433Z,100606.88
2018-08-24T09:20:14.274Z,100614.26
2018-08-24T09:22:47.826Z,100616.84
2018-08-24T09:25:21.683Z,100615.03
2018-08-24T09:27:55.331Z,100620.67
2018-08-24T09:30:25.049Z,100616.73
2018-08-24T09:32:53.475Z,100616.50
2018-08-24T09:35:21.927Z,100584.81
2018-08-24T09:37:50.353Z,100615.68
2018-08-24T09:40:18.808Z,100615.44
2018-08-24T09:42:47.300Z,100621.91
2018-08-24T09:45:15.692Z,100621.52
2018-08-24T09:47:49.508Z,100621.94
2018-08-24T09:50:23.232Z,100626.23
2018-08-24T09:52:56.836Z,100616.85
2018-08-24T09:55:29.386Z,100615.53
2018-08-24T09:57:57.834Z,100619.25
2018-08-24T10:00:30.371Z,100615.38
2018-08-24T10:04:02.604Z,100614.77
2018-08-24T10:06:36.487Z,100614.50
2018-08-24T10:09:08.144Z,100607.27
2018-08-24T10:11:36.797Z,100606.18
2018-08-24T10:14:05.542Z,100614.59
2018-08-24T10:16:34.065Z,100615.04
2018-08-24T10:19:02.577Z,100629.73
2018-08-24T10:21:30.947Z,100616.13
2018-08-24T10:23:59.454Z,100624.45
2018-08-24T10:26:27.912Z,100610.00
2018-08-24T10:28:58.152Z,100609.59
2018-08-24T10:31:26.566Z,100610.06
2018-08-24T10:33:55.058Z,100617.45
2018-08-24T10:36:23.385Z,100628.53
2018-08-24T10:38:51.776Z,100628.44
2018-08-24T10:41:20.250Z,100621.48
2018-08-24T10:43:48.717Z,100604.48
2018-08-24T10:46:17.137Z,100618.89
2018-08-24T10:48:45.556Z,100614.53
2018-08-24T10:51:14.004Z,100609.82
2018-08-24T10:53:42.462Z,100613.78
2018-08-24T10:56:10.934Z,100616.44
2018-08-24T10:58:39.281Z,100606.89
2018-08-24T11:01:07.686Z,100614.86
2018-08-24T11:03:36.130Z,100612.45
2018-08-24T11:06:04.512Z,100620.20
2018-08-24T11:08:32.934Z,100604.94
2018-08-24T11:11:01.421Z,100613.42
2018-08-24T11:13:29.898Z,100606.50
2018-08-24T11:15:58.344Z,100606.37
2018-08-24T11:18:26.969Z,100611.66
2018-08-24T11:20:55.720Z,100610.66
2018-08-24T11:23:24.275Z,100618.43
2018-08-24T11:25:52.753Z,100610.32
2018-08-24T11:28:21.505Z,100611.83
2018-08-24T11:30:50.027Z,100608.22
2018-08-24T11:33:18.465Z,100617.14
2018-08-24T11:35:46.979Z,100612.72
2018-08-24T11:38:15.361Z,100604.73
2018-08-24T11:40:43.764Z,100604.97
2018-08-24T11:43:12.143Z,100598.80
2018-08-24T11:45:40.591Z,100597.00
2018-08-24T11:48:09.064Z,100613.39
2018-08-24T11:50:37.493Z,100602.14
2018-08-24T11:53:06.068Z,100593.99
2018-08-24T11:55:34.541Z,100618.70
2018-08-24T11:58:03.056Z,100605.63
2018-08-24T12:00:32.703Z,100570.95
2018-08-24T12:03:02.092Z,100601.20
2018-08-24T12:05:30.985Z,100601.75
2018-08-24T12:07:59.590Z,100618.23
2018-08-24T12:10:27.989Z,100606.89
2018-08-24T12:12:57.011Z,100602.87
2018-08-24T12:15:25.449Z,100606.45
2018-08-24T12:17:54.462Z,100607.44
2018-08-24T12:20:22.928Z,100617.02
2018-08-24T12:22:51.523Z,100610.44
2018-08-24T12:25:19.972Z,100591.20
2018-08-24T12:27:48.389Z,100600.20
2018-08-24T12:30:16.840Z,100601.12
2018-08-24T12:32:45.383Z,100598.46
2018-08-24T12:35:13.835Z,100602.06
2018-08-24T12:37:45.021Z,100601.91
2018-08-24T12:40:14.667Z,100599.13
2018-08-24T12:42:43.077Z,100600.16
2018-08-24T12:45:11.528Z,100600.68
2018-08-24T12:47:40.028Z,100596.96
2018-08-24T12:50:08.997Z,100602.28
2018-08-24T12:52:37.424Z,100593.30
2018-08-24T12:55:05.972Z,100628.31
2018-08-24T12:57:34.396Z,100598.53
2018-08-24T13:00:02.916Z,100606.03
2018-08-24T13:02:31.313Z,100601.48
2018-08-24T13:04:59.793Z,100603.36
2018-08-24T13:07:28.244Z,100608.47
2018-08-24T13:09:56.724Z,100601.18
2018-08-24T13:12:25.156Z,100597.72
2018-08-24T13:14:54.469Z,100615.31
2018-08-24T13:17:23.010Z,100599.91
2018-08-24T13:19:51.449Z,100586.42
2018-08-24T13:22:19.901Z,100586.61
2018-08-24T13:24:48.305Z,100584.70
2018-08-24T13:27:16.804Z,100585.38
2018-08-24T13:29:45.182Z,100586.41
2018-08-24T13:32:13.689Z,100592.10
2018-08-24T13:34:42.086Z,100586.67
2018-08-24T13:37:10.547Z,100579.19
2018-08-24T13:39:39.029Z,100580.42
2018-08-24T13:42:07.515Z,100582.69
2018-08-24T13:44:35.950Z,100574.23
2018-08-24T13:47:04.474Z,100585.73
2018-08-24T13:49:32.846Z,100570.84
2018-08-24T13:52:01.337Z,100566.16
2018-08-24T13:54:29.759Z,100571.36
2018-08-24T13:56:58.184Z,100484.52
2018-08-24T13:59:26.630Z,100575.08
2018-08-24T14:01:55.057Z,100564.89
2018-08-24T14:04:23.485Z,100563.42
2018-08-24T14:06:52.038Z,100559.08
2018-08-24T14:09:20.506Z,100566.52
2018-08-24T14:11:48.950Z,100561.48
2018-08-24T14:14:17.443Z,100570.80
2018-08-24T14:16:45.877Z,100567.95
2018-08-24T14:19:14.991Z,100560.21
2018-08-24T14:21:43.457Z,100561.20
2018-08-24T14:24:12.033Z,100550.27
2018-08-24T14:26:40.522Z,100541.22
2018-08-24T14:29:09.061Z,100558.36
2018-08-24T14:31:37.574Z,100554.76
2018-08-24T14:34:06.004Z,100551.31
2018-08-24T14:36:34.502Z,100560.45
2018-08-24T14:39:03.004Z,100553.60
2018-08-24T14:41:31.463Z,100552.86
2018-08-24T14:44:00.204Z,100545.00
2018-08-24T14:46:28.639Z,100544.55
2018-08-24T14:48:58.105Z,100539.83
2018-08-24T14:51:27.171Z,100541.36
2018-08-24T14:53:55.606Z,100541.50
2018-08-24T14:56:24.047Z,100532.62
2018-08-24T14:58:52.545Z,100534.61
2018-08-24T15:01:21.636Z,100535.56
2018-08-24T15:03:51.021Z,100535.21
2018-08-24T15:06:20.827Z,100540.81
2018-08-24T15:08:49.280Z,100540.55
2018-08-24T15:11:18.902Z,100535.44
2018-08-24T15:13:47.360Z,100527.66
2018-08-24T15:16:15.784Z,100524.30
2018-08-24T15:18:44.209Z,100524.61
2018-08-24T15:21:13.300Z,100528.95
2018-08-24T15:23:41.770Z,100532.98
2018-08-24T15:26:11.036Z,100535.58
2018-08-24T15:28:39.480Z,100531.39
2018-08-24T15:31:08.060Z,100526.34
2018-08-24T15:33:36.535Z,100533.85
2018-08-24T15:36:05.020Z,100555.13
2018-08-24T15:38:33.471Z,100526.19
2018-08-24T15:41:01.940Z,100547.24
2018-08-24T15:43:30.328Z,100551.24
2018-08-24T15:45:58.784Z,100552.30
2018-08-24T15:48:27.248Z,100556.73
2018-08-24T15:50:55.776Z,100566.88
2018-08-24T15:53:24.791Z,100559.22
2018-08-24T15:55:53.229Z,100565.78
2018-08-24T15:58:21.674Z,100568.46
2018-08-24T16:00:50.097Z,100562.52
2018-08-24T16:03:19.193Z,100556.48
2018-08-24T16:05:48.025Z,100558.63
2018-08-24T16:08:16.480Z,100561.14
2018-08-24T16:10:44.893Z,100553.36
2018-08-24T16:13:13.345Z,100557.77
2018-08-24T16:15:41.745Z,100555.18
2018-08-24T16:18:15.431Z,100561.22
2018-08-24T16:20:43.900Z,100553.03
2018-08-24T16:23:12.780Z,100556.44
2018-08-24T16:25:41.657Z,100557.69
2018-08-24T16:28:10.119Z,100550.36
2018-08-24T16:30:38.657Z,100547.72
2018-08-24T16:33:07.098Z,100548.56
2018-08-24T16:35:35.534Z,100544.23
2018-08-24T16:38:03.975Z,100552.45
2018-08-24T16:40:32.400Z,100545.66
2018-08-24T16:43:01.463Z,100546.88
2018-08-24T16:45:29.893Z,100546.02
2018-08-24T16:47:58.375Z,100544.72
2018-08-24T16:50:26.821Z,100542.17
2018-08-24T16:52:55.729Z,100540.95
2018-08-24T16:55:24.889Z,100547.03
2018-08-24T16:57:53.944Z,100541.20
2018-08-24T17:00:22.616Z,100541.66
2018-08-24T17:02:51.083Z,100537.56
2018-08-24T17:05:19.559Z,100544.97
2018-08-24T17:07:48.073Z,100534.68
2018-08-24T17:10:16.471Z,100540.75
2018-08-24T17:12:44.956Z,100528.25
2018-08-24T17:15:13.383Z,100533.06
2018-08-24T17:17:41.780Z,100530.62
2018-08-24T17:20:10.233Z,100528.16
2018-08-24T17:22:38.654Z,100533.82
2018-08-24T17:25:07.134Z,100526.89
2018-08-24T17:27:35.572Z,100529.45
2018-08-24T17:30:04.074Z,100525.97
2018-08-24T17:32:32.564Z,100530.75
2018-08-24T17:35:01.028Z,100529.89
2018-08-24T17:37:29.418Z,100525.12
2018-08-24T17:39:57.805Z,100531.23
2018-08-24T17:42:26.236Z,100523.46
2018-08-24T17:44:54.768Z,100533.38
2018-08-24T17:47:23.196Z,100531.72
2018-08-24T17:49:52.015Z,100529.98
2018-08-24T17:52:20.479Z,100525.31
2018-08-24T17:54:57.884Z,100521.87
2018-08-24T17:57:27.404Z,100520.66
2018-08-24T17:59:55.816Z,100524.17
2018-08-24T18:02:24.296Z,100525.47
2018-08-24T18:04:52.739Z,100527.17
2018-08-24T18:07:21.231Z,100527.61
2018-08-24T18:09:49.666Z,100528.47
2018-08-24T18:12:18.071Z,100523.41
2018-08-24T18:14:46.598Z,100527.77
2018-08-24T18:17:15.906Z,100525.66
2018-08-24T18:19:44.408Z,100530.52
2018-08-24T18:22:12.825Z,100529.73
2018-08-24T18:24:41.506Z,100538.80
2018-08-24T18:27:09.835Z,100531.58
2018-08-24T18:29:38.257Z,100531.66
2018-08-24T18:32:06.765Z,100532.91
2018-08-24T18:34:35.232Z,100533.36
2018-08-24T18:37:03.674Z,100535.98
2018-08-24T18:39:32.130Z,100540.83
2018-08-24T18:42:00.532Z,100532.17
2018-08-24T18:44:28.928Z,100317.41
2018-08-24T18:46:57.299Z,100530.02
2018-08-24T18:49:25.718Z,100532.65
2018-08-24T18:51:54.117Z,100532.72
2018-08-24T18:54:22.472Z,100538.34
2018-08-24T18:56:50.881Z,100533.27
2018-08-24T18:59:19.577Z,100537.26
2018-08-24T19:01:48.072Z,100537.77
2018-08-24T19:04:16.475Z,100542.13
2018-08-24T19:06:44.972Z,100543.12
2018-08-24T19:09:13.743Z,100544.89
2018-08-24T19:11:47.549Z,100545.80
2018-08-24T19:14:15.983Z,100546.69
2018-08-24T19:16:44.430Z,100548.42
2018-08-24T19:19:18.172Z,100550.64
2018-08-24T19:21:48.405Z,100548.05
2018-08-24T19:24:16.826Z,100551.91
2018-08-24T19:26:45.278Z,100550.23
2018-08-24T19:29:19.060Z,100550.67
2018-08-24T19:31:47.554Z,100545.19
2018-08-24T19:34:16.009Z,100553.83
2018-08-24T19:36:44.492Z,100555.66
2018-08-24T19:39:14.589Z,100553.17
2018-08-24T19:41:48.217Z,100550.99
2018-08-24T19:44:16.693Z,100547.11
2018-08-24T19:46:45.396Z,100550.17
2018-08-24T19:49:19.409Z,100549.70
2018-08-24T19:51:47.866Z,100551.94
2018-08-24T19:54:17.617Z,100546.83
2018-08-24T19:56:46.957Z,100544.65
2018-08-24T19:59:16.674Z,100541.59
2018-08-24T20:01:45.156Z,100547.62
2018-08-24T20:04:13.575Z,100537.30
2018-08-24T20:07:49.501Z,100541.59
2018-08-24T20:10:18.533Z,100535.22
2018-08-24T20:12:47.841Z,100531.37
2018-08-24T20:15:21.467Z,100524.08
2018-08-24T20:17:49.965Z,100523.64
2018-08-24T20:20:18.418Z,100521.94
2018-08-24T20:22:46.881Z,100523.28
2018-08-24T20:25:15.320Z,100515.62
2018-08-24T20:27:43.757Z,100520.86
2018-08-24T20:30:12.152Z,100515.74
2018-08-24T20:32:40.564Z,100511.45
2018-08-24T20:35:09.068Z,100514.04
2018-08-24T20:37:37.564Z,100512.87
2018-08-24T20:40:06.495Z,100516.36
2018-08-24T20:42:35.058Z,100520.39
2018-08-24T20:45:03.557Z,100516.98
2018-08-24T20:47:32.029Z,100513.92
2018-08-24T20:50:00.542Z,100511.34
2018-08-24T20:52:29.090Z,100510.45
2018-08-24T20:54:57.574Z,100506.17
2018-08-24T20:57:26.039Z,100506.64
2018-08-24T20:59:54.559Z,100500.64
2018-08-24T21:02:22.988Z,100500.70
2018-08-24T21:04:51.431Z,100490.06
2018-08-24T21:07:19.899Z,100493.59
2018-08-24T21:09:48.360Z,100489.00
2018-08-24T21:12:16.836Z,100490.51
2018-08-24T21:14:45.233Z,100488.08
2018-08-24T21:17:13.664Z,100486.53
2018-08-24T21:19:42.088Z,100483.92
2018-08-24T21:22:10.613Z,100482.11
2018-08-24T21:24:39.164Z,100482.99
2018-08-24T21:27:07.651Z,100476.92
2018-08-24T21:29:36.104Z,100482.89
2018-08-24T21:32:04.770Z,100485.42
2018-08-24T21:34:33.211Z,100481.65
2018-08-24T21:37:01.708Z,100484.39
2018-08-24T21:39:30.245Z,100485.32
2018-08-24T21:41:58.684Z,100490.91
2018-08-24T21:44:27.109Z,100487.48
2018-08-24T21:46:55.522Z,100485.73
2018-08-24T21:49:23.917Z,100488.23
2018-08-24T21:51:52.333Z,100483.02
2018-08-24T21:54:20.852Z,100485.11
2018-08-24T21:56:49.280Z,100483.77
2018-08-24T21:59:17.718Z,100490.25
2018-08-24T22:01:46.271Z,100485.60
2018-08-24T22:04:14.767Z,100489.06
2018-08-24T22:06:43.175Z,100495.08
2018-08-24T22:09:11.615Z,100486.92
2018-08-24T22:11:40.055Z,100486.56
2018-08-24T22:14:08.466Z,100488.21
2018-08-24T22:16:37.001Z,100492.89
2018-08-24T22:19:05.842Z,100485.11
2018-08-24T22:21:34.325Z,100485.91
2018-08-24T22:24:02.744Z,100486.30
2018-08-24T22:26:31.168Z,100493.53
2018-08-24T22:28:59.588Z,100494.38
2018-08-24T22:31:28.062Z,100493.97
2018-08-24T22:33:56.529Z,100491.80
2018-08-24T22:36:25.013Z,100495.18
2018-08-24T22:38:53.477Z,100493.03
2018-08-24T22:41:21.917Z,100493.83
2018-08-24T22:43:50.363Z,100491.22
2018-08-24T22:46:18.780Z,100486.50
2018-08-24T22:48:47.163Z,100490.40
2018-08-24T22:51:15.541Z,100482.20
2018-08-24T22:53:43.994Z,100483.94
2018-08-24T22:56:12.470Z,100490.42
2018-08-24T22:58:40.910Z,100476.63
2018-08-24T23:01:09.321Z,100477.95
2018-08-24T23:03:37.798Z,100471.55
2018-08-24T23:06:06.244Z,100474.95
2018-08-24T23:08:34.648Z,100468.47
2018-08-24T23:11:03.102Z,100471.48
2018-08-24T23:13:31.573Z,100467.23
2018-08-24T23:16:00.008Z,100465.94
2018-08-24T23:18:28.432Z,100468.08
2018-08-24T23:20:56.841Z,100462.06
2018-08-24T23:23:25.260Z,100461.68
2018-08-24T23:25:53.703Z,100459.97
2018-08-24T23:28:22.151Z,100453.52
2018-08-24T23:30:50.562Z,100447.47
2018-08-24T23:33:19.010Z,100448.32
2018-08-24T23:35:47.440Z,100447.88
2018-08-24T23:38:15.885Z,100435.02
2018-08-24T23:40:44.288Z,100430.73
2018-08-24T23:43:12.731Z,100429.52
2018-08-24T23:45:41.205Z,100420.05
2018-08-24T23:48:09.633Z,100426.09
2018-08-24T23:50:38.143Z,100423.50
2018-08-24T23:53:07.919Z,100414.08
2018-08-24T23:55:36.402Z,100414.14
2018-08-24T23:58:04.853Z,100409.87
